createdAt,value
2017-09-16T00:01:01.585Z,69.30
2017-09-16T00:03:30.521Z,69.20
2017-09-16T00:05:58.685Z,69.20
2017-09-16T00:08:26.820Z,69.60
2017-09-16T00:10:55.886Z,70.10
2017-09-16T00:13:24.021Z,70.10
2017-09-16T00:15:52.156Z,70.10
2017-09-16T00:18:20.321Z,69.90
2017-09-16T00:20:48.460Z,69.80
2017-09-16T00:23:16.645Z,69.80
2017-09-16T00:25:44.781Z,69.50
2017-09-16T00:28:12.913Z,69.60
2017-09-16T00:30:41.189Z,69.90
2017-09-16T00:33:09.329Z,70.00
2017-09-16T00:35:37.513Z,70.00
2017-09-16T00:38:05.652Z,70.10
2017-09-16T00:40:33.792Z,70.30
2017-09-16T00:43:02.728Z,70.30
2017-09-16T00:45:30.860Z,69.80
2017-09-16T00:47:59.918Z,69.80
2017-09-16T00:50:28.050Z,69.70
2017-09-16T00:52:56.228Z,69.80
2017-09-16T00:55:24.360Z,69.90
2017-09-16T00:57:52.509Z,70.20
2017-09-16T01:00:20.685Z,70.50
2017-09-16T01:02:48.820Z,70.70
2017-09-16T01:05:16.961Z,70.70
2017-09-16T01:07:45.240Z,70.70
2017-09-16T01:10:13.389Z,70.30
2017-09-16T01:12:41.581Z,70.40
2017-09-16T01:15:09.721Z,70.40
2017-09-16T01:17:37.884Z,70.20
2017-09-16T01:20:06.029Z,70.10
2017-09-16T01:22:34.172Z,69.90
2017-09-16T01:25:02.445Z,70.30
2017-09-16T01:27:30.589Z,71.20
2017-09-16T01:30:00.048Z,71.00
2017-09-16T01:32:28.950Z,70.70
2017-09-16T01:34:57.109Z,70.60
2017-09-16T01:37:26.024Z,70.60
2017-09-16T01:39:54.165Z,71.30
2017-09-16T01:42:23.212Z,71.20
2017-09-16T01:44:51.354Z,71.10
2017-09-16T01:47:19.488Z,71.20
2017-09-16T01:49:47.657Z,71.10
2017-09-16T01:52:15.808Z,71.00
2017-09-16T01:54:43.969Z,71.00
2017-09-16T01:57:12.101Z,71.00
2017-09-16T01:59:41.157Z,71.20
2017-09-16T02:02:09.306Z,71.20
2017-09-16T02:04:37.441Z,70.90
2017-09-16T02:07:06.397Z,71.40
2017-09-16T02:09:34.549Z,71.40
2017-09-16T02:12:02.724Z,71.10
2017-09-16T02:14:30.861Z,71.00
2017-09-16T02:16:59.759Z,71.10
2017-09-16T02:19:27.923Z,71.10
2017-09-16T02:21:56.820Z,70.90
2017-09-16T02:24:24.994Z,70.90
2017-09-16T02:26:53.916Z,71.00
2017-09-16T02:29:22.075Z,71.00
2017-09-16T02:31:50.217Z,71.10
2017-09-16T02:34:19.141Z,70.70
2017-09-16T02:36:47.316Z,70.70
2017-09-16T02:39:15.467Z,70.60
2017-09-16T02:41:43.751Z,70.20
2017-09-16T02:44:11.889Z,70.10
2017-09-16T02:46:40.050Z,70.40
2017-09-16T02:49:08.185Z,70.80
2017-09-16T02:51:36.341Z,70.80
2017-09-16T02:54:04.481Z,71.20
2017-09-16T02:56:32.760Z,70.70
2017-09-16T02:59:00.921Z,70.80
2017-09-16T03:01:29.060Z,71.30
2017-09-16T03:03:57.234Z,70.80
2017-09-16T03:06:25.373Z,70.80
2017-09-16T03:08:53.658Z,70.60
2017-09-16T03:11:21.785Z,70.70
2017-09-16T03:13:49.926Z,70.60
2017-09-16T03:16:18.081Z,70.30
2017-09-16T03:18:46.221Z,70.40
2017-09-16T03:21:14.378Z,71.90
2017-09-16T03:23:42.505Z,70.60
2017-09-16T03:26:10.635Z,70.50
2017-09-16T03:28:38.913Z,71.80
2017-09-16T03:31:07.038Z,71.50
2017-09-16T03:33:35.201Z,71.50
2017-09-16T03:36:03.323Z,71.20
2017-09-16T03:38:31.500Z,71.40
2017-09-16T03:41:00.422Z,71.60
2017-09-16T03:43:28.536Z,71.50
2017-09-16T03:45:56.700Z,71.50
2017-09-16T03:48:25.603Z,71.90
2017-09-16T03:50:53.865Z,71.90
2017-09-16T03:53:22.760Z,72.30
2017-09-16T03:55:50.929Z,72.30
2017-09-16T03:58:19.053Z,72.40
2017-09-16T04:00:47.207Z,72.20
2017-09-16T04:03:15.337Z,72.00
2017-09-16T04:05:43.492Z,72.00
2017-09-16T04:08:12.528Z,72.40
2017-09-16T04:10:40.660Z,72.40
2017-09-16T04:13:09.588Z,72.10
2017-09-16T04:15:37.736Z,72.10
2017-09-16T04:18:05.852Z,72.20
2017-09-16T04:20:34.035Z,72.30
2017-09-16T04:23:02.168Z,72.20
2017-09-16T04:25:30.322Z,72.30
2017-09-16T04:27:58.555Z,72.40
2017-09-16T04:30:26.686Z,72.70
2017-09-16T04:32:54.846Z,72.50
2017-09-16T04:35:23.013Z,71.90
2017-09-16T04:37:51.934Z,72.20
2017-09-16T04:40:20.057Z,72.20
2017-09-16T04:42:48.249Z,72.70
2017-09-16T04:45:17.149Z,72.70
2017-09-16T04:47:45.309Z,72.50
2017-09-16T04:50:14.221Z,72.70
2017-09-16T04:52:42.344Z,72.70
2017-09-16T04:55:10.601Z,72.50
2017-09-16T04:57:38.744Z,72.80
2017-09-16T05:00:06.916Z,72.70
2017-09-16T05:02:35.053Z,72.80
2017-09-16T05:05:03.208Z,72.60
2017-09-16T05:07:31.352Z,72.60
2017-09-16T05:09:59.488Z,72.50
2017-09-16T05:12:28.431Z,72.30
2017-09-16T05:14:57.347Z,72.20
2017-09-16T05:17:25.493Z,72.20
2017-09-16T05:19:53.620Z,72.20
2017-09-16T05:22:22.541Z,72.70
2017-09-16T05:24:50.698Z,72.70
2017-09-16T05:27:18.829Z,72.80
2017-09-16T05:29:47.020Z,72.80
2017-09-16T05:32:15.914Z,73.00
2017-09-16T05:34:44.840Z,73.40
2017-09-16T05:37:12.969Z,73.40
2017-09-16T05:39:41.105Z,73.70
2017-09-16T05:42:09.282Z,73.90
2017-09-16T05:44:37.422Z,74.60
2017-09-16T05:47:06.845Z,74.60
2017-09-16T05:49:34.988Z,75.10
2017-09-16T05:52:03.130Z,75.60
2017-09-16T05:54:31.290Z,77.50
2017-09-16T05:57:00.601Z,78.20
2017-09-16T05:59:28.768Z,77.50
2017-09-16T06:01:56.908Z,77.50
2017-09-16T06:04:25.062Z,78.30
2017-09-16T06:06:53.324Z,78.50
2017-09-16T06:09:21.452Z,78.40
2017-09-16T13:57:45.157Z,67.60
2017-09-16T14:00:13.341Z,67.80
2017-09-16T14:02:41.550Z,68.80
2017-09-16T14:05:09.749Z,69.50
2017-09-16T14:07:38.650Z,69.70
2017-09-16T14:10:06.821Z,69.70
2017-09-16T14:12:34.966Z,69.20
2017-09-16T14:15:03.917Z,69.50
2017-09-16T14:17:33.388Z,69.50
2017-09-16T14:20:02.694Z,71.60
2017-09-16T14:22:30.864Z,71.60
2017-09-16T14:24:59.020Z,71.00
2017-09-16T14:27:28.657Z,70.60
2017-09-16T14:29:56.902Z,69.00
2017-09-16T14:32:25.864Z,71.20
2017-09-16T14:34:53.994Z,71.30
2017-09-16T14:37:22.321Z,71.70
2017-09-16T14:39:50.465Z,72.40
2017-09-16T14:42:18.620Z,72.20
2017-09-16T14:44:46.806Z,72.20
2017-09-16T14:47:14.973Z,71.00
2017-09-16T14:49:43.156Z,70.60
2017-09-16T14:52:11.335Z,70.40
2017-09-16T14:54:39.902Z,70.70
2017-09-16T14:57:08.889Z,70.30
2017-09-16T14:59:37.679Z,70.40
2017-09-16T15:02:08.326Z,71.70
2017-09-16T15:04:37.063Z,71.00
2017-09-16T15:07:07.297Z,71.00
2017-09-16T15:09:37.614Z,71.00
2017-09-16T15:12:07.938Z,71.90
2017-09-16T15:14:37.009Z,72.10
2017-09-16T15:17:08.769Z,72.60
2017-09-16T15:19:39.758Z,72.50
2017-09-16T15:22:11.325Z,72.50
2017-09-16T15:24:42.146Z,72.00
2017-09-16T15:27:13.145Z,72.10
2017-09-16T15:29:44.434Z,72.80
2017-09-16T15:32:15.218Z,72.80
2017-09-16T15:34:45.800Z,73.40
2017-09-16T15:37:16.100Z,73.40
2017-09-16T15:39:46.200Z,73.50
2017-09-16T15:42:16.398Z,74.00
2017-09-16T15:44:45.398Z,74.00
2017-09-16T15:47:14.707Z,73.90
2017-09-16T15:49:43.913Z,74.30
2017-09-16T15:52:13.356Z,74.60
2017-09-16T15:54:41.970Z,74.70
2017-09-16T15:57:10.469Z,74.70
2017-09-16T15:59:50.257Z,75.40
2017-09-16T16:02:19.255Z,75.10
2017-09-16T16:05:03.838Z,75.50
2017-09-16T16:07:38.202Z,75.40
2017-09-16T16:10:12.573Z,75.50
2017-09-16T16:12:40.994Z,75.60
2017-09-16T16:15:11.782Z,75.70
2017-09-16T16:17:43.182Z,75.70
2017-09-16T16:20:13.564Z,76.00
2017-09-16T16:22:42.809Z,75.90
2017-09-16T16:25:13.131Z,75.80
2017-09-16T16:27:42.570Z,75.60
2017-09-16T16:30:11.398Z,76.20
2017-09-16T16:32:43.434Z,76.90
2017-09-16T16:35:14.863Z,78.10
2017-09-16T16:37:44.548Z,78.10
2017-09-16T16:40:12.783Z,79.10
2017-09-16T16:42:41.586Z,78.70
2017-09-16T16:45:11.055Z,78.40
2017-09-16T16:47:40.194Z,78.60
2017-09-16T16:50:09.667Z,78.40
2017-09-16T16:52:38.413Z,78.40
2017-09-16T16:55:07.170Z,79.10
2017-09-16T16:57:35.347Z,79.10
2017-09-16T17:00:03.504Z,78.60
2017-09-16T17:02:31.662Z,78.70
2017-09-16T17:04:59.847Z,78.90
2017-09-16T17:07:27.997Z,79.40
2017-09-16T17:09:56.189Z,80.30
2017-09-16T17:12:24.356Z,79.50
2017-09-16T17:14:52.526Z,79.50
2017-09-16T17:17:20.696Z,79.40
2017-09-16T17:19:55.067Z,79.80
2017-09-16T17:22:24.037Z,79.30
2017-09-16T17:24:57.818Z,79.30
2017-09-16T17:27:27.368Z,78.30
2017-09-16T17:29:56.557Z,78.30
2017-09-16T17:32:29.927Z,78.30
2017-09-16T17:35:03.880Z,77.80
2017-09-16T17:37:36.768Z,77.80
2017-09-16T17:40:06.990Z,78.00
2017-09-16T17:42:39.690Z,77.50
2017-09-16T17:45:21.602Z,77.20
2017-09-16T17:47:49.805Z,77.40
2017-09-16T17:50:17.998Z,77.50
2017-09-16T17:53:12.612Z,77.50
2017-09-16T17:55:46.532Z,78.00
2017-09-16T17:58:23.268Z,78.40
2017-09-16T18:00:53.169Z,78.30
2017-09-16T18:03:21.650Z,78.10
2017-09-16T18:05:55.517Z,77.80
2017-09-16T18:08:23.919Z,77.80
2017-09-16T18:10:55.716Z,77.80
2017-09-16T18:13:25.749Z,77.60
2017-09-16T18:15:54.388Z,77.80
2017-09-16T18:18:24.312Z,77.60
2017-09-16T18:20:52.577Z,77.30
2017-09-16T18:23:23.997Z,77.30
2017-09-16T18:25:57.536Z,77.30
2017-09-16T18:28:31.717Z,77.60
2017-09-16T18:31:03.645Z,78.50
2017-09-16T18:33:32.691Z,77.70
2017-09-16T18:36:00.877Z,77.70
2017-09-16T18:38:34.175Z,77.80
2017-09-16T18:41:08.655Z,77.70
2017-09-16T18:43:38.485Z,77.90
2017-09-16T18:46:12.768Z,77.90
2017-09-16T18:48:50.026Z,77.70
2017-09-16T18:51:18.345Z,77.70
2017-09-16T18:53:46.504Z,77.70
2017-09-16T18:56:32.361Z,77.80
2017-09-16T18:59:04.174Z,77.80
2017-09-16T19:01:37.337Z,77.60
2017-09-16T19:04:10.180Z,77.70
2017-09-16T19:06:39.306Z,77.60
2017-09-16T19:09:12.955Z,77.80
2017-09-16T19:11:44.782Z,78.00
2017-09-16T19:14:14.534Z,78.40
2017-09-16T19:16:48.338Z,78.20
2017-09-16T19:19:19.492Z,77.70
2017-09-16T19:21:55.413Z,77.40
2017-09-16T19:24:28.325Z,77.30
2017-09-16T19:26:57.337Z,77.40
2017-09-16T19:29:28.544Z,77.10
2017-09-16T19:32:00.989Z,76.90
2017-09-16T19:34:31.640Z,76.90
2017-09-16T19:39:54.653Z,76.60
2017-09-16T19:42:24.520Z,76.40
2017-09-16T19:44:57.739Z,76.40
2017-09-16T19:47:27.044Z,76.20
2017-09-16T19:49:59.009Z,76.10
2017-09-16T19:52:27.471Z,76.10
2017-09-16T19:54:57.728Z,75.70
2017-09-16T19:57:31.188Z,75.60
2017-09-16T20:00:00.525Z,75.60
2017-09-16T20:02:28.786Z,76.20
2017-09-16T20:04:56.948Z,75.30
2017-09-16T20:07:25.129Z,75.70
2017-09-16T20:09:53.340Z,75.70
2017-09-16T20:12:21.565Z,75.80
2017-09-16T20:14:49.702Z,75.60
2017-09-16T20:17:18.796Z,75.50
2017-09-16T20:19:46.961Z,75.40
2017-09-16T20:22:15.220Z,76.20
2017-09-16T20:24:43.372Z,75.60
2017-09-16T20:27:11.524Z,75.50
2017-09-16T20:29:39.698Z,75.40
2017-09-16T20:32:07.868Z,75.30
2017-09-16T20:34:36.074Z,75.30
2017-09-16T20:37:04.238Z,75.30
2017-09-16T20:39:33.729Z,75.20
2017-09-16T20:42:02.124Z,75.00
2017-09-16T20:44:30.268Z,74.70
2017-09-16T20:46:58.469Z,74.90
2017-09-16T20:49:26.637Z,75.20
2017-09-16T20:51:54.941Z,75.30
2017-09-16T20:54:23.110Z,75.20
2017-09-16T20:56:51.376Z,75.10
2017-09-16T20:59:19.525Z,75.30
2017-09-16T21:01:47.698Z,75.30
2017-09-16T21:04:15.873Z,75.10
2017-09-16T21:06:44.349Z,75.20
2017-09-16T21:09:12.616Z,75.20
2017-09-16T21:11:40.760Z,74.80
2017-09-16T21:14:08.950Z,74.80
2017-09-16T21:16:37.870Z,74.80
2017-09-16T21:19:06.061Z,74.80
2017-09-16T21:21:34.221Z,74.80
2017-09-16T21:24:02.357Z,75.30
2017-09-16T21:26:31.587Z,75.30
2017-09-16T21:28:59.718Z,75.30
2017-09-16T21:31:29.073Z,75.30
2017-09-16T21:33:57.242Z,75.20
2017-09-16T21:36:25.435Z,75.20
2017-09-16T21:38:53.561Z,75.30
2017-09-16T21:41:21.866Z,75.20
2017-09-16T21:43:50.073Z,75.30
2017-09-16T21:46:18.225Z,75.50
2017-09-16T21:48:46.371Z,75.60
2017-09-16T21:51:14.529Z,75.70
2017-09-16T21:53:42.685Z,75.70
2017-09-16T21:56:10.877Z,75.60
2017-09-16T21:58:39.784Z,75.60
2017-09-16T22:01:08.083Z,75.50
2017-09-16T22:03:36.217Z,75.50
2017-09-16T22:06:05.138Z,74.70
2017-09-16T22:08:33.309Z,74.70
2017-09-16T22:11:01.442Z,74.50
2017-09-16T22:13:30.505Z,74.70
2017-09-16T22:15:58.661Z,74.70
2017-09-16T22:18:26.817Z,74.70
2017-09-16T22:20:55.269Z,74.70
2017-09-16T22:23:24.172Z,74.50
2017-09-16T22:25:52.340Z,74.40
2017-09-16T22:28:21.245Z,74.60
2017-09-16T22:30:49.450Z,74.60
2017-09-16T22:33:17.584Z,74.40
2017-09-16T22:35:45.740Z,74.50
2017-09-16T22:38:14.001Z,74.60
2017-09-16T22:40:42.237Z,74.80
2017-09-16T22:43:10.414Z,74.60
2017-09-16T22:45:38.567Z,74.90
2017-09-16T22:48:06.749Z,74.90
2017-09-16T22:50:34.892Z,74.70
2017-09-16T22:53:03.841Z,75.00
2017-09-16T22:55:32.014Z,75.00
2017-09-16T22:58:00.288Z,75.20
2017-09-16T23:00:28.413Z,75.40
2017-09-16T23:02:56.552Z,75.90
2017-09-16T23:05:24.757Z,76.10
2017-09-16T23:07:52.856Z,76.20
2017-09-16T23:10:21.012Z,76.40
2017-09-16T23:12:49.193Z,76.40
2017-09-16T23:15:17.360Z,76.70
2017-09-16T23:17:45.649Z,76.60
2017-09-16T23:20:13.776Z,76.90
2017-09-16T23:22:41.972Z,77.20
2017-09-16T23:25:10.869Z,76.90
2017-09-16T23:27:38.996Z,76.90
2017-09-16T23:30:07.265Z,76.90
2017-09-16T23:32:35.394Z,77.00
2017-09-16T23:35:03.556Z,77.10
2017-09-16T23:37:32.459Z,76.90
2017-09-16T23:40:00.621Z,76.90
2017-09-16T23:42:29.526Z,76.60
2017-09-16T23:44:57.813Z,76.70
2017-09-16T23:47:25.949Z,76.50
2017-09-16T23:49:54.846Z,76.60
2017-09-16T23:52:23.778Z,76.60
2017-09-16T23:54:51.932Z,76.60
2017-09-16T23:57:20.085Z,76.60
2017-09-16T23:59:49.001Z,76.80
